sensor_id;sensor_type;location;lat;lon;timestamp;pressure;altitude;pressure_sealevel;temperature;humidity
13952;BME280;39535;52.192;9.886;2022-07-10T00:00:50;101532.28;;;13.88;70.06
13952;BME280;39535;52.192;9.886;2022-07-10T00:03:59;101526.06;;;13.94;70.29
13952;BME280;39535;52.192;9.886;2022-07-10T00:06:39;101513.19;;;13.77;70.84
13952;BME280;39535;52.192;9.886;2022-07-10T00:09:23;101488.00;;;13.65;71.69
13952;BME280;39535;52.192;9.886;2022-07-10T00:11:57;101476.00;;;13.50;72.13
13952;BME280;39535;52.192;9.886;2022-07-10T00:14:49;101470.53;;;13.66;72.11
13952;BME280;39535;52.192;9.886;2022-07-10T00:17:28;101478.44;;;13.61;71.63
13952;BME280;39535;52.192;9.886;2022-07-10T00:19:58;101470.81;;;13.46;72.77
13952;BME280;39535;52.192;9.886;2022-07-10T00:22:41;101456.91;;;13.39;72.84
13952;BME280;39535;52.192;9.886;2022-07-10T00:25:18;101456.66;;;13.56;72.13
13952;BME280;39535;52.192;9.886;2022-07-10T00:27:53;101465.28;;;13.66;72.00
13952;BME280;39535;52.192;9.886;2022-07-10T00:30:29;101489.66;;;13.73;71.56
13952;BME280;39535;52.192;9.886;2022-07-10T00:33:15;101489.19;;;13.46;71.83
13952;BME280;39535;52.192;9.886;2022-07-10T00:35:47;101472.41;;;13.56;71.93
13952;BME280;39535;52.192;9.886;2022-07-10T00:38:24;101475.13;;;13.50;72.02
13952;BME280;39535;52.192;9.886;2022-07-10T00:40:57;101476.72;;;13.60;71.82
13952;BME280;39535;52.192;9.886;2022-07-10T00:44:38;101482.00;;;13.57;71.76
13952;BME280;39535;52.192;9.886;2022-07-10T00:46:46;101489.97;;;13.49;71.46
13952;BME280;39535;52.192;9.886;2022-07-10T00:49:22;101489.88;;;13.56;71.94
13952;BME280;39535;52.192;9.886;2022-07-10T00:52:16;101485.66;;;13.47;72.01
13952;BME280;39535;52.192;9.886;2022-07-10T00:54:52;101494.16;;;13.63;71.36
13952;BME280;39535;52.192;9.886;2022-07-10T00:57:31;101484.91;;;13.36;72.17
13952;BME280;39535;52.192;9.886;2022-07-10T01:00:04;101462.97;;;13.44;72.73
13952;BME280;39535;52.192;9.886;2022-07-10T01:02:40;101454.16;;;13.47;71.54
13952;BME280;39535;52.192;9.886;2022-07-10T01:05:18;101469.06;;;13.46;71.76
13952;BME280;39535;52.192;9.886;2022-07-10T01:08:03;101485.66;;;13.45;71.44
13952;BME280;39535;52.192;9.886;2022-07-10T01:10:40;101507.69;;;13.34;70.74
13952;BME280;39535;52.192;9.886;2022-07-10T01:13:18;101497.88;;;13.48;71.10
13952;BME280;39535;52.192;9.886;2022-07-10T01:15:52;101486.75;;;13.30;71.55
13952;BME280;39535;52.192;9.886;2022-07-10T01:18:42;101463.16;;;13.27;72.47
13952;BME280;39535;52.192;9.886;2022-07-10T01:21:40;101461.28;;;13.40;72.01
13952;BME280;39535;52.192;9.886;2022-07-10T01:24:13;101455.00;;;13.49;71.99
13952;BME280;39535;52.192;9.886;2022-07-10T01:26:51;101474.31;;;13.45;71.16
13952;BME280;39535;52.192;9.886;2022-07-10T01:29:24;101477.13;;;13.29;71.97
13952;BME280;39535;52.192;9.886;2022-07-10T01:31:54;101466.56;;;13.36;71.64
13952;BME280;39535;52.192;9.886;2022-07-10T01:34:43;101451.81;;;13.30;72.30
13952;BME280;39535;52.192;9.886;2022-07-10T01:37:28;101448.31;;;13.28;71.94
13952;BME280;39535;52.192;9.886;2022-07-10T01:40:17;101457.00;;;13.33;71.69
13952;BME280;39535;52.192;9.886;2022-07-10T01:42:52;101458.81;;;13.26;71.95
13952;BME280;39535;52.192;9.886;2022-07-10T01:45:23;101449.16;;;13.28;71.86
13952;BME280;39535;52.192;9.886;2022-07-10T01:47:55;101445.69;;;13.26;72.22
13952;BME280;39535;52.192;9.886;2022-07-10T01:50:26;101443.88;;;13.33;71.64
13952;BME280;39535;52.192;9.886;2022-07-10T01:53:12;101447.53;;;13.20;72.02
13952;BME280;39535;52.192;9.886;2022-07-10T01:55:51;101441.31;;;13.25;72.10
13952;BME280;39535;52.192;9.886;2022-07-10T01:58:26;101444.00;;;13.22;72.04
13952;BME280;39535;52.192;9.886;2022-07-10T02:01:10;101446.56;;;13.27;71.22
13952;BME280;39535;52.192;9.886;2022-07-10T02:03:56;101454.19;;;13.45;71.08
13952;BME280;39535;52.192;9.886;2022-07-10T02:06:43;101465.84;;;13.23;71.64
13952;BME280;39535;52.192;9.886;2022-07-10T02:09:28;101428.38;;;13.16;72.73
13952;BME280;39535;52.192;9.886;2022-07-10T02:12:09;101411.84;;;13.09;73.05
13952;BME280;39535;52.192;9.886;2022-07-10T02:14:47;101402.09;;;13.19;73.30
13952;BME280;39535;52.192;9.886;2022-07-10T02:17:21;101403.09;;;13.10;73.36
13952;BME280;39535;52.192;9.886;2022-07-10T02:19:53;101375.09;;;13.14;74.37
13952;BME280;39535;52.192;9.886;2022-07-10T02:22:29;101361.78;;;13.28;74.04
13952;BME280;39535;52.192;9.886;2022-07-10T02:25:10;101355.81;;;13.18;74.40
13952;BME280;39535;52.192;9.886;2022-07-10T02:27:45;101334.88;;;13.15;75.01
13952;BME280;39535;52.192;9.886;2022-07-10T02:30:39;101317.53;;;13.06;75.29
13952;BME280;39535;52.192;9.886;2022-07-10T02:33:16;101324.25;;;13.24;74.79
13952;BME280;39535;52.192;9.886;2022-07-10T02:35:57;101322.56;;;13.20;75.09
13952;BME280;39535;52.192;9.886;2022-07-10T02:38:53;101313.88;;;13.15;75.74
13952;BME280;39535;52.192;9.886;2022-07-10T02:41:30;101313.81;;;13.20;75.43
13952;BME280;39535;52.192;9.886;2022-07-10T02:44:12;101321.00;;;13.08;75.91
13952;BME280;39535;52.192;9.886;2022-07-10T02:46:51;101304.44;;;13.05;76.31
13952;BME280;39535;52.192;9.886;2022-07-10T02:50:14;101290.53;;;12.98;76.55
13952;BME280;39535;52.192;9.886;2022-07-10T02:53:05;101279.16;;;13.01;76.18
13952;BME280;39535;52.192;9.886;2022-07-10T02:55:43;101294.69;;;13.13;75.82
13952;BME280;39535;52.192;9.886;2022-07-10T02:58:18;101285.06;;;13.15;75.90
13952;BME280;39535;52.192;9.886;2022-07-10T03:00:57;101285.19;;;13.07;76.52
13952;BME280;39535;52.192;9.886;2022-07-10T03:03:33;101292.25;;;13.02;76.28
13952;BME280;39535;52.192;9.886;2022-07-10T03:06:04;101298.28;;;13.07;76.08
13952;BME280;39535;52.192;9.886;2022-07-10T03:08:41;101285.38;;;12.95;76.89
13952;BME280;39535;52.192;9.886;2022-07-10T03:11:10;101268.63;;;13.04;76.95
13952;BME280;39535;52.192;9.886;2022-07-10T03:13:47;101272.13;;;13.04;77.54
13952;BME280;39535;52.192;9.886;2022-07-10T03:16:16;101239.91;;;12.98;78.45
13952;BME280;39535;52.192;9.886;2022-07-10T03:18:53;101226.75;;;13.02;78.17
13952;BME280;39535;52.192;9.886;2022-07-10T03:21:30;101205.91;;;12.93;78.92
13952;BME280;39535;52.192;9.886;2022-07-10T03:24:22;101175.19;;;13.01;79.39
13952;BME280;39535;52.192;9.886;2022-07-10T03:26:54;101166.63;;;12.91;80.26
13952;BME280;39535;52.192;9.886;2022-07-10T03:29:44;101148.16;;;12.98;80.02
13952;BME280;39535;52.192;9.886;2022-07-10T03:32:25;101149.38;;;12.78;81.40
13952;BME280;39535;52.192;9.886;2022-07-10T03:34:58;101131.75;;;12.88;81.21
13952;BME280;39535;52.192;9.886;2022-07-10T03:37:32;101133.53;;;12.86;81.61
13952;BME280;39535;52.192;9.886;2022-07-10T03:40:22;101109.19;;;12.81;82.31
13952;BME280;39535;52.192;9.886;2022-07-10T03:43:14;101115.22;;;12.84;82.35
13952;BME280;39535;52.192;9.886;2022-07-10T03:45:52;101121.13;;;12.96;82.00
13952;BME280;39535;52.192;9.886;2022-07-10T03:48:25;101134.06;;;13.05;81.44
13952;BME280;39535;52.192;9.886;2022-07-10T03:51:01;101138.63;;;12.94;82.14
13952;BME280;39535;52.192;9.886;2022-07-10T03:53:40;101121.19;;;12.93;82.17
13952;BME280;39535;52.192;9.886;2022-07-10T03:56:27;101140.91;;;13.12;81.37
13952;BME280;39535;52.192;9.886;2022-07-10T03:59:12;101151.72;;;12.95;82.01
13952;BME280;39535;52.192;9.886;2022-07-10T04:02:13;101152.78;;;12.83;82.28
13952;BME280;39535;52.192;9.886;2022-07-10T04:05:11;101139.59;;;12.88;82.31
13952;BME280;39535;52.192;9.886;2022-07-10T04:07:45;101139.59;;;12.88;81.99
13952;BME280;39535;52.192;9.886;2022-07-10T04:10:26;101154.59;;;12.78;82.39
13952;BME280;39535;52.192;9.886;2022-07-10T04:13:02;101139.56;;;12.91;81.93
13952;BME280;39535;52.192;9.886;2022-07-10T04:15:50;101171.66;;;13.04;81.84
13952;BME280;39535;52.192;9.886;2022-07-10T04:18:26;101179.75;;;12.90;82.03
13952;BME280;39535;52.192;9.886;2022-07-10T04:21:02;101179.56;;;13.02;81.31
13952;BME280;39535;52.192;9.886;2022-07-10T04:23:37;101186.41;;;13.09;81.13
13952;BME280;39535;52.192;9.886;2022-07-10T04:26:14;101201.25;;;13.10;80.76
13952;BME280;39535;52.192;9.886;2022-07-10T04:28:52;101220.44;;;13.13;80.33
13952;BME280;39535;52.192;9.886;2022-07-10T04:31:28;101207.41;;;13.08;80.87
13952;BME280;39535;52.192;9.886;2022-07-10T04:33:58;101217.59;;;13.25;80.48
13952;BME280;39535;52.192;9.886;2022-07-10T04:36:28;101225.44;;;13.28;79.95
13952;BME280;39535;52.192;9.886;2022-07-10T04:39:21;101236.84;;;13.24;80.07
13952;BME280;39535;52.192;9.886;2022-07-10T04:41:54;101232.50;;;13.23;79.65
13952;BME280;39535;52.192;9.886;2022-07-10T04:44:25;101251.50;;;13.37;79.24
13952;BME280;39535;52.192;9.886;2022-07-10T04:46:58;101240.25;;;13.29;79.97
13952;BME280;39535;52.192;9.886;2022-07-10T04:49:29;101249.94;;;13.24;79.44
13952;BME280;39535;52.192;9.886;2022-07-10T04:52:07;101246.44;;;13.26;80.12
13952;BME280;39535;52.192;9.886;2022-07-10T04:54:39;101245.94;;;13.04;79.97
13952;BME280;39535;52.192;9.886;2022-07-10T04:57:18;101264.81;;;13.25;79.04
13952;BME280;39535;52.192;9.886;2022-07-10T04:59:49;101273.44;;;13.33;78.77
13952;BME280;39535;52.192;9.886;2022-07-10T05:02:20;101270.88;;;13.30;79.27
13952;BME280;39535;52.192;9.886;2022-07-10T05:05:34;101275.31;;;13.22;78.65
13952;BME280;39535;52.192;9.886;2022-07-10T05:08:26;101293.84;;;13.13;78.64
13952;BME280;39535;52.192;9.886;2022-07-10T05:10:58;101276.34;;;13.15;79.29
13952;BME280;39535;52.192;9.886;2022-07-10T05:13:43;101271.97;;;13.12;79.10
13952;BME280;39535;52.192;9.886;2022-07-10T05:16:25;101271.06;;;13.16;79.50
13952;BME280;39535;52.192;9.886;2022-07-10T05:19:10;101280.84;;;13.06;78.67
13952;BME280;39535;52.192;9.886;2022-07-10T05:21:42;101286.59;;;13.28;78.63
13952;BME280;39535;52.192;9.886;2022-07-10T05:24:22;101305.84;;;13.26;78.24
13952;BME280;39535;52.192;9.886;2022-07-10T05:26:53;101336.28;;;13.38;77.38
13952;BME280;39535;52.192;9.886;2022-07-10T05:29:25;101350.22;;;13.41;77.67
13952;BME280;39535;52.192;9.886;2022-07-10T05:31:55;101355.19;;;13.58;77.22
13952;BME280;39535;52.192;9.886;2022-07-10T05:34:32;101359.88;;;13.38;77.83
13952;BME280;39535;52.192;9.886;2022-07-10T05:37:08;101359.09;;;13.34;77.01
13952;BME280;39535;52.192;9.886;2022-07-10T05:39:37;101359.97;;;13.31;77.23
13952;BME280;39535;52.192;9.886;2022-07-10T05:42:16;101349.53;;;13.28;77.55
13952;BME280;39535;52.192;9.886;2022-07-10T05:44:44;101357.25;;;13.38;77.24
13952;BME280;39535;52.192;9.886;2022-07-10T05:47:46;101371.94;;;13.49;76.71
13952;BME280;39535;52.192;9.886;2022-07-10T05:50:25;101388.44;;;13.58;75.81
13952;BME280;39535;52.192;9.886;2022-07-10T05:53:04;101386.66;;;13.60;76.05
13952;BME280;39535;52.192;9.886;2022-07-10T05:55:38;101390.38;;;13.46;76.43
13952;BME280;39535;52.192;9.886;2022-07-10T05:58:10;101390.38;;;13.45;76.10
13952;BME280;39535;52.192;9.886;2022-07-10T06:00:41;101400.56;;;13.65;75.85
13952;BME280;39535;52.192;9.886;2022-07-10T06:03:23;101402.44;;;13.57;76.03
13952;BME280;39535;52.192;9.886;2022-07-10T06:06:08;101412.78;;;13.66;75.48
13952;BME280;39535;52.192;9.886;2022-07-10T06:08:40;101404.09;;;13.64;75.49
13952;BME280;39535;52.192;9.886;2022-07-10T06:11:14;101412.78;;;13.66;75.11
13952;BME280;39535;52.192;9.886;2022-07-10T06:13:48;101429.06;;;13.86;75.01
13952;BME280;39535;52.192;9.886;2022-07-10T06:16:29;101448.09;;;13.99;74.38
13952;BME280;39535;52.192;9.886;2022-07-10T06:18:56;101457.84;;;13.91;74.45
13952;BME280;39535;52.192;9.886;2022-07-10T06:21:22;101450.91;;;13.88;74.68
13952;BME280;39535;52.192;9.886;2022-07-10T06:23:50;101432.50;;;13.92;75.22
13952;BME280;39535;52.192;9.886;2022-07-10T06:26:17;101443.03;;;13.88;74.55
13952;BME280;39535;52.192;9.886;2022-07-10T06:28:43;101452.69;;;13.86;74.77
13952;BME280;39535;52.192;9.886;2022-07-10T06:31:10;101428.03;;;13.97;75.38
13952;BME280;39535;52.192;9.886;2022-07-10T06:33:37;101419.88;;;14.12;75.48
13952;BME280;39535;52.192;9.886;2022-07-10T06:36:05;101450.56;;;14.10;74.16
13952;BME280;39535;52.192;9.886;2022-07-10T06:38:31;101457.19;;;14.31;74.36
13952;BME280;39535;52.192;9.886;2022-07-10T06:40:59;101462.69;;;14.17;74.34
13952;BME280;39535;52.192;9.886;2022-07-10T06:43:26;101460.69;;;14.32;74.88
13952;BME280;39535;52.192;9.886;2022-07-10T06:45:52;101450.81;;;14.43;73.62
13952;BME280;39535;52.192;9.886;2022-07-10T06:48:19;101478.78;;;14.47;73.53
13952;BME280;39535;52.192;9.886;2022-07-10T06:50:45;101491.59;;;14.67;72.88
13952;BME280;39535;52.192;9.886;2022-07-10T06:53:12;101536.28;;;14.65;71.30
13952;BME280;39535;52.192;9.886;2022-07-10T06:55:39;101559.97;;;14.62;71.30
13952;BME280;39535;52.192;9.886;2022-07-10T06:58:06;101560.78;;;14.67;71.01
13952;BME280;39535;52.192;9.886;2022-07-10T07:00:33;101574.75;;;14.71;70.76
13952;BME280;39535;52.192;9.886;2022-07-10T07:03:00;101598.44;;;14.68;69.46
13952;BME280;39535;52.192;9.886;2022-07-10T07:05:26;101599.53;;;14.53;70.32
13952;BME280;39535;52.192;9.886;2022-07-10T07:07:53;101574.16;;;14.50;70.89
13952;BME280;39535;52.192;9.886;2022-07-10T07:10:19;101563.56;;;14.58;71.16
13952;BME280;39535;52.192;9.886;2022-07-10T07:12:46;101557.25;;;14.68;70.77
13952;BME280;39535;52.192;9.886;2022-07-10T07:15:14;101571.19;;;14.74;70.01
13952;BME280;39535;52.192;9.886;2022-07-10T07:17:42;101579.66;;;14.88;70.14
13952;BME280;39535;52.192;9.886;2022-07-10T07:20:32;101614.66;;;14.93;68.00
13952;BME280;39535;52.192;9.886;2022-07-10T07:23:16;101646.19;;;14.95;68.21
13952;BME280;39535;52.192;9.886;2022-07-10T07:25:43;101652.06;;;15.07;68.33
13952;BME280;39535;52.192;9.886;2022-07-10T07:28:12;101662.47;;;15.14;67.10
13952;BME280;39535;52.192;9.886;2022-07-10T07:30:42;101673.56;;;15.31;66.97
13952;BME280;39535;52.192;9.886;2022-07-10T07:33:08;101669.69;;;15.51;67.14
13952;BME280;39535;52.192;9.886;2022-07-10T07:35:35;101668.81;;;15.50;65.38
13952;BME280;39535;52.192;9.886;2022-07-10T07:38:02;101722.47;;;15.41;64.45
13952;BME280;39535;52.192;9.886;2022-07-10T07:40:29;101758.69;;;15.28;65.08
13952;BME280;39535;52.192;9.886;2022-07-10T07:42:55;101764.69;;;15.34;63.78
13952;BME280;39535;52.192;9.886;2022-07-10T07:45:23;101753.34;;;15.30;64.96
13952;BME280;39535;52.192;9.886;2022-07-10T07:47:52;101733.38;;;15.20;65.89
13952;BME280;39535;52.192;9.886;2022-07-10T07:50:20;101716.50;;;15.33;65.55
13952;BME280;39535;52.192;9.886;2022-07-10T07:52:48;101710.22;;;15.40;65.45
13952;BME280;39535;52.192;9.886;2022-07-10T07:55:16;101724.25;;;15.39;65.39
13952;BME280;39535;52.192;9.886;2022-07-10T07:57:43;101708.38;;;15.44;65.12
13952;BME280;39535;52.192;9.886;2022-07-10T08:00:11;101714.41;;;15.52;64.65
13952;BME280;39535;52.192;9.886;2022-07-10T08:02:38;101732.75;;;15.55;65.17
13952;BME280;39535;52.192;9.886;2022-07-10T08:05:07;101735.13;;;15.69;65.29
13952;BME280;39535;52.192;9.886;2022-07-10T08:07:35;101736.84;;;15.70;65.04
13952;BME280;39535;52.192;9.886;2022-07-10T08:10:03;101737.13;;;15.56;64.86
13952;BME280;39535;52.192;9.886;2022-07-10T08:12:30;101725.81;;;15.49;65.74
13952;BME280;39535;52.192;9.886;2022-07-10T08:14:56;101724.22;;;15.42;65.38
13952;BME280;39535;52.192;9.886;2022-07-10T08:17:23;101729.25;;;15.55;65.26
13952;BME280;39535;52.192;9.886;2022-07-10T08:19:50;101728.97;;;15.70;64.63
13952;BME280;39535;52.192;9.886;2022-07-10T08:22:17;101744.44;;;15.87;64.46
13952;BME280;39535;52.192;9.886;2022-07-10T08:24:44;101761.06;;;15.91;63.30
13952;BME280;39535;52.192;9.886;2022-07-10T08:27:10;101782.03;;;15.95;62.73
13952;BME280;39535;52.192;9.886;2022-07-10T08:29:37;101772.19;;;16.03;63.67
13952;BME280;39535;52.192;9.886;2022-07-10T08:32:04;101779.38;;;15.97;62.63
13952;BME280;39535;52.192;9.886;2022-07-10T08:34:31;101790.03;;;15.89;62.18
13952;BME280;39535;52.192;9.886;2022-07-10T08:36:58;101803.16;;;15.94;61.90
13952;BME280;39535;52.192;9.886;2022-07-10T08:39:27;101790.31;;;15.75;62.69
13952;BME280;39535;52.192;9.886;2022-07-10T08:41:54;101808.81;;;15.69;62.92
13952;BME280;39535;52.192;9.886;2022-07-10T08:44:20;101786.41;;;15.96;63.08
13952;BME280;39535;52.192;9.886;2022-07-10T08:46:47;101786.31;;;16.01;59.69
13952;BME280;39535;52.192;9.886;2022-07-10T08:49:16;101870.31;;;16.16;59.36
13952;BME280;39535;52.192;9.886;2022-07-10T08:51:47;101893.03;;;16.22;59.37
13952;BME280;39535;52.192;9.886;2022-07-10T08:54:14;101897.34;;;16.26;59.35
13952;BME280;39535;52.192;9.886;2022-07-10T08:56:43;101908.06;;;16.17;58.32
13952;BME280;39535;52.192;9.886;2022-07-10T08:59:12;101923.34;;;16.43;56.82
13952;BME280;39535;52.192;9.886;2022-07-10T09:01:40;101918.19;;;16.83;58.23
13952;BME280;39535;52.192;9.886;2022-07-10T09:04:06;101948.16;;;16.78;55.89
13952;BME280;39535;52.192;9.886;2022-07-10T09:06:33;101972.16;;;16.65;55.67
13952;BME280;39535;52.192;9.886;2022-07-10T09:09:02;101989.94;;;16.53;56.32
13952;BME280;39535;52.192;9.886;2022-07-10T09:11:29;101972.44;;;16.50;55.02
13952;BME280;39535;52.192;9.886;2022-07-10T09:13:59;101983.00;;;16.48;56.08
13952;BME280;39535;52.192;9.886;2022-07-10T09:16:26;101965.09;;;16.66;56.95
13952;BME280;39535;52.192;9.886;2022-07-10T09:18:53;101944.53;;;16.85;55.45
13952;BME280;39535;52.192;9.886;2022-07-10T09:21:20;101976.19;;;16.85;55.10
13952;BME280;39535;52.192;9.886;2022-07-10T09:23:47;101976.06;;;16.91;55.59
13952;BME280;39535;52.192;9.886;2022-07-10T09:26:14;101994.66;;;16.85;55.14
13952;BME280;39535;52.192;9.886;2022-07-10T09:28:40;101978.03;;;16.78;56.51
13952;BME280;39535;52.192;9.886;2022-07-10T09:31:08;101944.22;;;16.55;58.22
13952;BME280;39535;52.192;9.886;2022-07-10T09:33:35;101902.31;;;16.41;58.41
13952;BME280;39535;52.192;9.886;2022-07-10T09:36:06;101885.41;;;16.53;58.59
13952;BME280;39535;52.192;9.886;2022-07-10T09:38:50;101870.56;;;16.49;59.66
13952;BME280;39535;52.192;9.886;2022-07-10T09:41:18;101842.50;;;16.45;59.36
13952;BME280;39535;52.192;9.886;2022-07-10T09:43:47;101860.31;;;16.34;59.85
13952;BME280;39535;52.192;9.886;2022-07-10T09:46:16;101832.63;;;16.55;58.63
13952;BME280;39535;52.192;9.886;2022-07-10T09:48:43;101853.47;;;16.67;58.76
13952;BME280;39535;52.192;9.886;2022-07-10T09:51:11;101865.34;;;16.44;58.92
13952;BME280;39535;52.192;9.886;2022-07-10T09:53:39;101854.00;;;16.41;58.92
13952;BME280;39535;52.192;9.886;2022-07-10T09:56:07;101871.28;;;16.56;57.60
13952;BME280;39535;52.192;9.886;2022-07-10T09:58:34;101875.03;;;16.87;56.41
13952;BME280;39535;52.192;9.886;2022-07-10T10:01:02;101909.81;;;17.05;55.04
13952;BME280;39535;52.192;9.886;2022-07-10T10:03:33;101959.47;;;17.26;55.90
13952;BME280;39535;52.192;9.886;2022-07-10T10:06:02;101961.69;;;17.04;54.74
13952;BME280;39535;52.192;9.886;2022-07-10T10:08:33;101967.47;;;16.80;56.10
13952;BME280;39535;52.192;9.886;2022-07-10T10:11:03;101956.25;;;16.68;56.67
13952;BME280;39535;52.192;9.886;2022-07-10T10:13:30;101935.91;;;16.75;57.19
13952;BME280;39535;52.192;9.886;2022-07-10T10:16:00;101919.09;;;16.81;56.65
13952;BME280;39535;52.192;9.886;2022-07-10T10:18:28;101905.88;;;16.84;56.65
13952;BME280;39535;52.192;9.886;2022-07-10T10:20:56;101911.09;;;16.87;57.06
13952;BME280;39535;52.192;9.886;2022-07-10T10:23:23;101906.38;;;17.01;57.72
13952;BME280;39535;52.192;9.886;2022-07-10T10:25:51;101901.94;;;17.02;57.04
13952;BME280;39535;52.192;9.886;2022-07-10T10:28:20;101908.69;;;17.15;56.82
13952;BME280;39535;52.192;9.886;2022-07-10T10:30:50;101877.13;;;17.48;56.94
13952;BME280;39535;52.192;9.886;2022-07-10T10:33:42;101876.09;;;17.54;55.73
13952;BME280;39535;52.192;9.886;2022-07-10T10:36:13;101944.81;;;17.52;54.79
13952;BME280;39535;52.192;9.886;2022-07-10T10:39:03;101943.56;;;17.67;54.11
13952;BME280;39535;52.192;9.886;2022-07-10T10:41:37;101985.97;;;17.61;53.19
13952;BME280;39535;52.192;9.886;2022-07-10T10:44:22;102006.09;;;17.65;52.73
13952;BME280;39535;52.192;9.886;2022-07-10T10:46:54;102001.84;;;17.59;52.55
13952;BME280;39535;52.192;9.886;2022-07-10T10:49:26;102013.72;;;17.77;53.67
13952;BME280;39535;52.192;9.886;2022-07-10T10:51:58;102011.63;;;17.93;52.55
13952;BME280;39535;52.192;9.886;2022-07-10T10:54:25;102001.09;;;17.92;52.76
13952;BME280;39535;52.192;9.886;2022-07-10T10:57:13;102016.94;;;17.92;53.19
13952;BME280;39535;52.192;9.886;2022-07-10T10:59:46;102016.50;;;18.10;53.52
13952;BME280;39535;52.192;9.886;2022-07-10T11:02:22;102019.38;;;18.01;51.86
13952;BME280;39535;52.192;9.886;2022-07-10T11:04:49;102034.53;;;17.93;51.58
13952;BME280;39535;52.192;9.886;2022-07-10T11:10:29;102037.41;;;18.19;51.97
13952;BME280;39535;52.192;9.886;2022-07-10T11:12:58;102038.03;;;18.29;51.83
13952;BME280;39535;52.192;9.886;2022-07-10T11:15:25;102054.44;;;18.43;50.59
13952;BME280;39535;52.192;9.886;2022-07-10T11:17:52;102070.56;;;18.33;50.33
13952;BME280;39535;52.192;9.886;2022-07-10T11:20:20;102084.22;;;18.50;51.09
13952;BME280;39535;52.192;9.886;2022-07-10T11:22:49;102070.09;;;18.85;50.56
13952;BME280;39535;52.192;9.886;2022-07-10T11:25:39;102055.91;;;18.88;49.39
13952;BME280;39535;52.192;9.886;2022-07-10T11:28:10;102073.56;;;18.53;50.09
13952;BME280;39535;52.192;9.886;2022-07-10T11:30:45;102065.13;;;18.37;51.30
13952;BME280;39535;52.192;9.886;2022-07-10T11:33:12;102036.22;;;18.65;51.41
13952;BME280;39535;52.192;9.886;2022-07-10T11:35:39;102022.69;;;18.76;51.45
13952;BME280;39535;52.192;9.886;2022-07-10T11:38:06;102008.56;;;19.09;51.04
13952;BME280;39535;52.192;9.886;2022-07-10T11:40:36;102008.66;;;19.35;49.95
13952;BME280;39535;52.192;9.886;2022-07-10T11:43:03;102044.31;;;19.23;47.94
13952;BME280;39535;52.192;9.886;2022-07-10T11:45:33;102090.16;;;18.93;49.06
13952;BME280;39535;52.192;9.886;2022-07-10T11:48:03;102069.50;;;18.73;48.06
13952;BME280;39535;52.192;9.886;2022-07-10T11:50:35;102117.59;;;18.56;48.93
13952;BME280;39535;52.192;9.886;2022-07-10T11:53:03;102106.34;;;18.48;48.59
13952;BME280;39535;52.192;9.886;2022-07-10T11:55:29;102099.66;;;19.01;48.66
13952;BME280;39535;52.192;9.886;2022-07-10T11:57:58;102091.75;;;19.00;47.76
13952;BME280;39535;52.192;9.886;2022-07-10T12:00:26;102096.50;;;19.50;47.55
13952;BME280;39535;52.192;9.886;2022-07-10T12:02:54;102118.22;;;19.92;46.20
13952;BME280;39535;52.192;9.886;2022-07-10T12:05:34;102164.75;;;19.40;47.18
13952;BME280;39535;52.192;9.886;2022-07-10T12:08:00;102149.03;;;19.34;48.02
13952;BME280;39535;52.192;9.886;2022-07-10T12:10:27;102120.84;;;19.00;48.74
13952;BME280;39535;52.192;9.886;2022-07-10T12:13:04;102113.16;;;18.56;50.42
13952;BME280;39535;52.192;9.886;2022-07-10T12:15:32;102056.22;;;18.76;50.42
13952;BME280;39535;52.192;9.886;2022-07-10T12:17:58;102050.31;;;18.66;50.63
13952;BME280;39535;52.192;9.886;2022-07-10T12:20:25;102033.50;;;18.34;51.76
13952;BME280;39535;52.192;9.886;2022-07-10T12:22:52;102016.06;;;18.27;53.10
13952;BME280;39535;52.192;9.886;2022-07-10T12:25:19;101994.50;;;18.42;52.91
13952;BME280;39535;52.192;9.886;2022-07-10T12:27:46;101980.38;;;18.11;53.51
13952;BME280;39535;52.192;9.886;2022-07-10T12:30:14;101982.53;;;17.95;53.94
13952;BME280;39535;52.192;9.886;2022-07-10T12:32:40;101962.97;;;17.66;55.01
13952;BME280;39535;52.192;9.886;2022-07-10T12:35:07;101945.81;;;17.46;55.44
13952;BME280;39535;52.192;9.886;2022-07-10T12:37:47;101927.56;;;17.73;55.71
13952;BME280;39535;52.192;9.886;2022-07-10T12:40:31;101925.88;;;17.71;55.64
13952;BME280;39535;52.192;9.886;2022-07-10T12:43:01;101919.44;;;17.81;55.22
13952;BME280;39535;52.192;9.886;2022-07-10T12:45:29;101926.88;;;17.65;55.35
13952;BME280;39535;52.192;9.886;2022-07-10T12:47:56;101921.63;;;17.63;55.57
13952;BME280;39535;52.192;9.886;2022-07-10T12:50:23;101916.38;;;17.62;55.88
13952;BME280;39535;52.192;9.886;2022-07-10T12:53:06;101911.75;;;17.72;54.99
13952;BME280;39535;52.192;9.886;2022-07-10T12:55:37;101928.34;;;18.13;54.59
13952;BME280;39535;52.192;9.886;2022-07-10T12:58:08;101948.31;;;17.90;55.35
13952;BME280;39535;52.192;9.886;2022-07-10T13:00:44;101918.34;;;17.90;55.71
13952;BME280;39535;52.192;9.886;2022-07-10T13:03:18;101922.25;;;17.75;56.56
13952;BME280;39535;52.192;9.886;2022-07-10T13:05:45;101889.66;;;18.10;56.51
13952;BME280;39535;52.192;9.886;2022-07-10T13:08:12;101883.72;;;18.33;55.72
13952;BME280;39535;52.192;9.886;2022-07-10T13:10:41;101916.25;;;18.04;55.15
13952;BME280;39535;52.192;9.886;2022-07-10T13:13:08;101912.81;;;18.00;55.57
13952;BME280;39535;52.192;9.886;2022-07-10T13:15:36;101909.75;;;17.80;56.04
13952;BME280;39535;52.192;9.886;2022-07-10T13:18:07;101906.53;;;17.70;56.74
13952;BME280;39535;52.192;9.886;2022-07-10T13:20:34;101894.41;;;17.61;56.96
13952;BME280;39535;52.192;9.886;2022-07-10T13:23:00;101885.81;;;17.53;56.67
13952;BME280;39535;52.192;9.886;2022-07-10T13:25:27;101877.56;;;17.65;57.30
13952;BME280;39535;52.192;9.886;2022-07-10T13:27:54;101871.34;;;17.32;59.56